Terminal Aerodrome Forecast
Issued by NWS Jackson, MS

Home | Current Version | Previous Version | Text Only | Print | Product List | Glossary On
Versions: 1 2 3 4 5 6 7 8 9 10 11 12 13 14
766
FTUS44 KJAN 220619 RRA
TAFMEI
TAF
KMEI 220619Z 2206/2306 22008KT P6SM SCT035 BKN100
     FM221400 24012KT P6SM -TSRA SCT015CB BKN050
     FM221800 27014G22KT P6SM VCSH BKN050=

USA.gov is the U.S. government's official web portal to all federal, state and local government web resources and services.